Kansas City, Missouri
Current Conditions -  °F | °C
As of 12:50 AM on Thursday 27 Nov 2014 (Local Time) from KMKC Reporting Station
Overcast Overcast  
Wind Chill: 20°   Ceiling: 3000
Heat Index: 28°   Visibility: 8mi
Dew Point: 21°   Wind: 9mph
Humidity: 74%   Direction: 310°NW
Pressure: 30.44"   Gusts: NA
Location:  39.1°N, 94.58°W
Report Text: KMKC 270650Z 31008KT 8SM FEW020 OVC030 M02/M06 A3044 RMK AO2
Loading
Personal Weather Stations






























Interactive Weather Map New forecast layout! Learn more

10-Day Weather Forecast

Advertisements
Track Severe Weather on mobile